Time;durP1;ratioP1;P1;durP2;ratioP2;P2;SDS_P1;SDS_P2;PMS_P1;PMS_P2;Temp;Humidity;BMP_temperature;BMP_pressure;BME280_temperature;BME280_humidity;BME280_pressure;Samples;Min_cycle;Max_cycle;Signal;HPM_P1;HPM_P2
2022/05/27 00:01:11;;;;;;;;;;;14.40;99.90;;;;;;5045532;28;20049;-66
2022/05/27 00:03:37;;;;;;;8.18;2.65;;;14.10;99.90;;;;;;5055144;28;19921;-66
2022/05/27 00:06:03;;;;;;;8.15;2.35;;;14.10;99.90;;;;;;5054015;28;20044;-66
2022/05/27 00:08:29;;;;;;;8.07;2.88;;;14.20;99.90;;;;;;5055367;28;20063;-66
2022/05/27 00:10:56;;;;;;;7.72;2.60;;;14.30;99.90;;;;;;5053719;28;20511;-66
2022/05/27 00:13:23;;;;;;;10.50;3.13;;;14.30;99.90;;;;;;5054483;28;20040;-66
2022/05/27 00:15:48;;;;;;;6.28;2.60;;;14.30;99.90;;;;;;5054066;28;20380;-66
2022/05/27 00:18:14;;;;;;;7.90;3.10;;;14.20;99.90;;;;;;5055004;28;20116;-66
2022/05/27 00:20:39;;;;;;;9.60;3.22;;;14.10;99.90;;;;;;5037130;28;20403;-66
2022/05/27 00:23:06;;;;;;;6.65;2.97;;;14.10;99.90;;;;;;5054902;28;20037;-66
2022/05/27 00:25:31;;;;;;;9.82;2.92;;;14.20;99.90;;;;;;5053304;28;20049;-66
2022/05/27 00:27:57;;;;;;;8.30;2.53;;;14.20;99.90;;;;;;5053996;28;20094;-66
2022/05/27 00:30:23;;;;;;;7.97;2.85;;;14.10;99.90;;;;;;5053876;28;20047;-66
2022/05/27 00:32:49;;;;;;;9.85;2.40;;;;;;;;;;5053456;28;20037;-66
2022/05/27 00:35:15;;;;;;;10.13;3.03;;;14.10;99.90;;;;;;5054691;28;20041;-66
2022/05/27 00:37:41;;;;;;;8.43;3.47;;;14.20;99.90;;;;;;5053365;28;20037;-66
2022/05/27 00:40:09;;;;;;;6.38;2.90;;;14.30;99.90;;;;;;5054460;28;20040;-65
2022/05/27 00:42:41;;;;;;;11.82;2.90;;;14.10;99.90;;;;;;5053340;28;20041;-66
2022/05/27 00:45:12;;;;;;;7.45;3.05;;;14.10;99.90;;;;;;5053146;28;20040;-66
2022/05/27 00:47:39;;;;;;;12.23;2.85;;;14.20;99.90;;;;;;5053096;28;20117;-66
2022/05/27 00:50:08;;;;;;;6.65;2.70;;;14.10;99.90;;;;;;5054716;28;20059;-66
2022/05/27 00:52:37;;;;;;;12.15;3.38;;;14.20;99.90;;;;;;5052914;28;20040;-66
2022/05/27 00:55:10;;;;;;;9.55;3.30;;;14.10;99.90;;;;;;5054728;28;20095;-66
2022/05/27 00:57:42;;;;;;;9.35;2.78;;;14.10;99.90;;;;;;5053465;28;20115;-66
2022/05/27 01:00:14;;;;;;;12.52;3.80;;;14.20;99.90;;;;;;5053181;28;20048;-66
2022/05/27 01:02:40;;;;;;;7.80;3.58;;;14.20;99.90;;;;;;5054307;28;20037;-66
2022/05/27 01:05:08;;;;;;;13.02;3.58;;;14.40;99.90;;;;;;5053873;28;20507;-67
2022/05/27 01:07:33;;;;;;;11.27;2.75;;;14.10;99.90;;;;;;5054182;28;20048;-66
2022/05/27 01:10:01;;;;;;;12.85;3.05;;;14.20;99.90;;;;;;5054150;28;20399;-66
2022/05/27 01:12:29;;;;;;;16.27;3.30;;;14.20;99.90;;;;;;5053905;28;20041;-66
2022/05/27 01:15:06;;;;;;;9.82;2.80;;;14.10;99.90;;;;;;5035797;28;20044;-66
2022/05/27 01:17:57;;;;;;;13.70;2.88;;;14.10;99.90;;;;;;5053584;28;20121;-66
2022/05/27 01:20:38;;;;;;;12.90;3.17;;;14.00;99.90;;;;;;5052686;28;20056;-66
2022/05/27 01:23:41;;;;;;;14.20;3.15;;;14.00;99.90;;;;;;5052795;28;20464;-66
2022/05/27 01:26:17;;;;;;;9.65;2.72;;;14.00;99.90;;;;;;5052632;28;20041;-66
2022/05/27 01:29:04;;;;;;;7.78;2.50;;;13.90;99.90;;;;;;5054089;28;20044;-66
2022/05/27 01:31:52;;;;;;;14.05;3.03;;;13.90;99.90;;;;;;5053712;28;20048;-66
2022/05/27 01:34:38;;;;;;;14.75;2.70;;;14.00;99.90;;;;;;5041608;28;20064;-66
2022/05/27 01:37:05;;;;;;;14.25;3.03;;;;;;;;;;5052683;28;20052;-66
2022/05/27 01:39:45;;;;;;;17.33;3.75;;;13.90;99.90;;;;;;5052771;28;20052;-66
2022/05/27 01:42:26;;;;;;;12.88;2.30;;;13.70;99.90;;;;;;5052176;28;20106;-67
2022/05/27 01:44:56;;;;;;;17.33;2.65;;;13.70;99.90;;;;;;5032979;28;20466;-66
2022/05/27 01:47:38;;;;;;;15.05;3.13;;;13.70;99.90;;;;;;5052017;28;20086;-66
2022/05/27 01:50:18;;;;;;;7.85;2.97;;;13.70;99.90;;;;;;5052168;28;20455;-66
2022/05/27 01:52:51;;;;;;;16.25;2.92;;;13.60;99.90;;;;;;5053032;28;20051;-66
2022/05/27 01:55:34;;;;;;;9.65;2.92;;;13.50;99.90;;;;;;5052516;28;20491;-66
2022/05/27 01:58:20;;;;;;;19.30;3.05;;;13.60;99.90;;;;;;5053272;28;20037;-66
2022/05/27 02:00:48;;;;;;;14.80;3.40;;;13.50;99.90;;;;;;5051872;28;20079;-66
2022/05/27 02:03:21;;;;;;;13.35;3.25;;;13.40;99.90;;;;;;5052911;28;20033;-66
2022/05/27 02:06:11;;;;;;;10.52;2.35;;;13.40;99.90;;;;;;5053112;28;20048;-66
2022/05/27 02:08:42;;;;;;;16.10;3.50;;;13.30;99.90;;;;;;5052173;28;20037;-66
2022/05/27 02:11:19;;;;;;;13.40;2.80;;;13.20;99.90;;;;;;5051540;28;20049;-66
2022/05/27 02:14:10;;;;;;;13.02;3.10;;;13.40;99.90;;;;;;5051577;28;20052;-66
2022/05/27 02:16:44;;;;;;;11.40;3.10;;;13.10;99.90;;;;;;5051715;28;20554;-66
2022/05/27 02:19:09;;;;;;;15.30;3.03;;;13.30;99.90;;;;;;5034973;28;20045;-67
2022/05/27 02:21:41;;;;;;;13.90;2.90;;;13.50;99.90;;;;;;5052669;28;20604;-66
2022/05/27 02:24:07;;;;;;;16.92;3.53;;;;;;;;;;5051244;28;20041;-66
2022/05/27 02:26:39;;;;;;;15.32;3.80;;;13.10;99.90;;;;;;5052880;28;20044;-66
2022/05/27 02:29:12;;;;;;;11.40;2.80;;;13.10;99.90;;;;;;5051710;28;20125;-66
2022/05/27 02:31:42;;;;;;;16.60;3.33;;;13.20;99.90;;;;;;5051546;28;20072;-66
2022/05/27 02:37:10;;;;;;;17.73;3.30;;;13.00;99.90;;;;;;5051326;28;20057;-66
2022/05/27 02:39:36;;;;;;;12.48;2.95;;;13.00;99.90;;;;;;5051481;28;20080;-66
2022/05/27 02:42:17;;;;;;;14.15;3.72;;;12.90;99.90;;;;;;5051238;28;20094;-66
2022/05/27 02:44:59;;;;;;;17.27;3.65;;;12.80;99.90;;;;;;5051196;28;20517;-66
2022/05/27 02:47:40;;;;;;;14.27;3.72;;;12.90;99.90;;;;;;5051180;28;20049;-66
2022/05/27 02:50:31;;;;;;;15.63;3.00;;;12.90;99.90;;;;;;5052561;28;20503;-66
2022/05/27 02:53:02;;;;;;;16.73;3.83;;;12.90;99.90;;;;;;5034776;28;20053;-66
2022/05/27 02:55:44;;;;;;;9.80;2.90;;;12.80;99.90;;;;;;5051982;28;20056;-66
2022/05/27 02:58:10;;;;;;;16.48;5.80;;;12.90;99.90;;;;;;5051208;28;20045;-66
2022/05/27 03:00:39;;;;;;;11.43;3.75;;;12.90;99.90;;;;;;5052193;28;20118;-66
2022/05/27 03:03:05;;;;;;;17.17;3.92;;;12.80;99.90;;;;;;5052413;28;20041;-66
2022/05/27 03:05:46;;;;;;;15.32;4.18;;;12.70;99.90;;;;;;5052352;28;20037;-66
2022/05/27 03:08:27;;;;;;;15.00;4.68;;;12.80;99.90;;;;;;5035791;28;20044;-66
2022/05/27 03:11:15;;;;;;;18.38;4.43;;;12.80;99.90;;;;;;5038472;28;20033;-66
2022/05/27 03:14:01;;;;;;;16.17;4.95;;;12.80;99.90;;;;;;5056314;28;20037;-66
2022/05/27 03:17:02;;;;;;;14.73;4.63;;;12.70;99.90;;;;;;5054836;28;20045;-66
2022/05/27 03:20:05;;;;;;;15.48;4.95;;;12.80;99.90;;;;;;5038267;28;20087;-66
2022/05/27 03:23:08;;;;;;;13.38;4.57;;;12.70;99.90;;;;;;5055715;28;20068;-66
2022/05/27 03:26:01;;;;;;;21.50;4.72;;;12.70;99.90;;;;;;5014259;28;20103;-66
2022/05/27 03:28:48;;;;;;;14.68;4.38;;;12.80;99.90;;;;;;5055803;28;20041;-66
2022/05/27 03:31:30;;;;;;;9.70;4.05;;;12.70;99.90;;;;;;5056102;28;20072;-66
2022/05/27 03:34:23;;;;;;;13.52;3.75;;;12.50;99.90;;;;;;5054614;28;20510;-66
2022/05/27 03:37:00;;;;;;;15.10;3.22;;;12.60;99.90;;;;;;5054537;28;20075;-66
2022/05/27 03:39:39;;;;;;;11.25;3.53;;;12.50;99.90;;;;;;5055780;28;20041;-66
2022/05/27 03:42:08;;;;;;;11.25;4.25;;;12.60;99.90;;;;;;5054497;28;20037;-65
2022/05/27 03:44:35;;;;;;;13.27;3.35;;;12.70;99.90;;;;;;5054474;28;20041;-65
2022/05/27 03:47:01;;;;;;;14.88;3.72;;;12.60;99.90;;;;;;5054145;28;20044;-66
2022/05/27 03:49:28;;;;;;;13.65;3.00;;;12.70;99.90;;;;;;5055476;28;20044;-66
2022/05/27 03:51:58;;;;;;;21.58;3.78;;;12.80;99.90;;;;;;5037551;28;20041;-66
2022/05/27 03:54:24;;;;;;;7.80;2.78;;;12.80;99.90;;;;;;5054286;28;20052;-67
2022/05/27 03:56:50;;;;;;;14.98;3.38;;;;;;;;;;5055535;28;20045;-66
2022/05/27 03:59:17;;;;;;;13.15;3.20;;;12.80;99.90;;;;;;5055571;28;20049;-66
2022/05/27 04:01:46;;;;;;;14.25;3.88;;;13.00;99.90;;;;;;5055072;28;20491;-66
2022/05/27 04:04:15;;;;;;;14.23;2.95;;;12.60;99.90;;;;;;5174102;22;20053;-66
2022/05/27 04:06:42;;;;;;;14.52;2.92;;;12.80;99.90;;;;;;5054168;28;20068;-66
2022/05/27 04:09:07;;;;;;;15.25;3.10;;;12.80;99.90;;;;;;5054200;28;20560;-66
2022/05/27 04:11:34;;;;;;;17.02;2.88;;;12.80;99.90;;;;;;5053963;28;20083;-66
2022/05/27 04:14:01;;;;;;;16.25;2.40;;;12.90;99.90;;;;;;5055634;28;20037;-66
2022/05/27 04:16:26;;;;;;;21.75;4.78;;;12.90;99.90;;;;;;5053512;28;20055;-66
2022/05/27 04:18:52;;;;;;;14.63;2.80;;;12.80;99.90;;;;;;5053522;28;20124;-66
2022/05/27 04:21:18;;;;;;;14.45;3.17;;;12.90;99.90;;;;;;5054822;28;20037;-66
2022/05/27 04:23:43;;;;;;;9.73;2.55;;;12.90;99.90;;;;;;5055140;28;20044;-66
2022/05/27 04:26:09;;;;;;;11.68;2.50;;;12.80;99.90;;;;;;5050818;28;20047;-65
2022/05/27 04:28:35;;;;;;;16.88;2.80;;;12.80;99.90;;;;;;5049375;28;20376;-65
2022/05/27 04:31:02;;;;;;;13.88;2.90;;;12.90;99.90;;;;;;5046550;28;20120;-66
2022/05/27 04:33:28;;;;;;;17.88;3.25;;;12.90;99.90;;;;;;5038846;28;20065;-66
2022/05/27 04:35:58;;;;;;;11.70;3.03;;;12.80;99.90;;;;;;5029470;28;20049;-66
2022/05/27 04:38:25;;;;;;;16.90;4.47;;;12.80;99.90;;;;;;5029377;28;20128;-66
2022/05/27 04:40:50;;;;;;;12.70;2.95;;;12.80;99.90;;;;;;5024785;28;20591;-66
2022/05/27 04:43:16;;;;;;;13.73;3.20;;;13.10;99.90;;;;;;5023518;28;20053;-67
2022/05/27 04:45:42;;;;;;;12.13;3.40;;;12.90;99.90;;;;;;5028426;28;20889;-66
2022/05/27 04:48:09;;;;;;;10.30;2.72;;;12.80;99.90;;;;;;5045276;28;20491;-66
2022/05/27 04:50:35;;;;;;;11.55;2.38;;;12.90;99.90;;;;;;5043364;28;20499;-66
2022/05/27 04:53:02;;;;;;;14.43;3.42;;;12.60;99.90;;;;;;5039329;28;20045;-66
2022/05/27 04:55:30;;;;;;;11.55;3.15;;;12.70;99.90;;;;;;5028843;28;20051;-65
2022/05/27 04:57:56;;;;;;;10.25;2.67;;;;;;;;;;5027250;28;20120;-65
2022/05/27 05:00:29;;;;;;;13.57;3.60;;;12.80;99.90;;;;;;5056015;28;20195;-65
2022/05/27 05:02:55;;;;;;;10.48;2.53;;;;;;;;;;5041752;28;20123;-65
2022/05/27 05:05:23;;;;;;;14.70;3.13;;;12.90;99.90;;;;;;5040209;28;20084;-65
2022/05/27 05:07:59;;;;;;;10.75;2.70;;;12.80;99.90;;;;;;5041013;28;20131;-65
2022/05/27 05:10:25;;;;;;;11.13;2.45;;;;;;;;;;5041308;28;20037;-65
2022/05/27 05:12:51;;;;;;;13.20;2.78;;;;;;;;;;5040711;28;20048;-65
2022/05/27 05:15:19;;;;;;;10.35;2.35;;;13.10;99.90;;;;;;5039517;28;20132;-64
2022/05/27 05:17:45;;;;;;;11.05;2.60;;;;;;;;;;5041001;28;20047;-64
2022/05/27 05:20:13;;;;;;;11.55;2.38;;;13.60;99.90;;;;;;5041948;28;20041;-65
2022/05/27 05:22:40;;;;;;;10.68;2.50;;;;;;;;;;5037638;28;20069;-64
2022/05/27 05:25:06;;;;;;;11.38;2.60;;;14.20;99.90;;;;;;5029330;28;20486;-66
2022/05/27 05:27:34;;;;;;;12.63;2.45;;;14.20;99.90;;;;;;5033668;28;20041;-65
2022/05/27 05:30:00;;;;;;;12.85;2.42;;;14.60;99.90;;;;;;5032984;28;20575;-65
2022/05/27 05:32:26;;;;;;;13.57;2.17;;;14.70;99.90;;;;;;5030475;28;20060;-65
2022/05/27 05:34:53;;;;;;;9.38;2.42;;;14.90;99.90;;;;;;5034983;28;20412;-65
2022/05/27 05:37:18;;;;;;;12.27;2.50;;;15.40;99.90;;;;;;5037139;28;20049;-65
2022/05/27 05:39:44;;;;;;;10.27;2.05;;;15.70;99.90;;;;;;5044458;28;20044;-65
2022/05/27 05:42:10;;;;;;;9.90;2.38;;;16.20;99.90;;;;;;5045226;28;20044;-67
2022/05/27 05:44:36;;;;;;;14.00;2.40;;;16.70;99.90;;;;;;5046394;28;20045;-66
2022/05/27 05:47:02;;;;;;;11.02;1.77;;;16.70;99.90;;;;;;5049507;28;20041;-66
2022/05/27 05:49:29;;;;;;;10.27;2.00;;;16.80;99.90;;;;;;5059695;28;20053;-65
2022/05/27 05:51:57;;;;;;;9.48;2.50;;;17.00;99.90;;;;;;5048300;28;20060;-65
2022/05/27 05:54:25;;;;;;;9.57;3.33;;;17.00;99.90;;;;;;5046169;28;20598;-66
2022/05/27 05:56:51;;;;;;;11.95;2.22;;;16.50;99.90;;;;;;5046659;28;20098;-66
2022/05/27 05:59:18;;;;;;;7.90;1.77;;;16.20;99.90;;;;;;5047721;28;20478;-65
2022/05/27 06:01:43;;;;;;;11.60;2.45;;;16.10;99.90;;;;;;5046276;28;20103;-65
2022/05/27 06:04:10;;;;;;;12.68;2.05;;;15.40;99.90;;;;;;5029564;28;20140;-66
2022/05/27 06:06:37;;;;;;;13.88;2.00;;;15.30;99.90;;;;;;5047905;28;20056;-65
2022/05/27 06:09:04;;;;;;;11.32;2.35;;;15.20;99.90;;;;;;5047963;28;20065;-65
2022/05/27 06:11:29;;;;;;;15.32;3.03;;;15.40;99.90;;;;;;5047774;28;20059;-65
2022/05/27 06:13:55;;;;;;;8.48;1.88;;;15.40;99.90;;;;;;5047719;28;20044;-65
2022/05/27 06:16:20;;;;;;;14.18;3.25;;;15.70;99.90;;;;;;5046403;28;20513;-65
2022/05/27 06:18:47;;;;;;;11.07;2.42;;;15.90;99.90;;;;;;5046424;28;20526;-65
2022/05/27 06:21:13;;;;;;;14.30;2.28;;;15.80;99.90;;;;;;5050157;28;20491;-65
2022/05/27 06:23:39;;;;;;;11.52;2.65;;;15.80;99.90;;;;;;5052043;28;20071;-65
2022/05/27 06:26:08;;;;;;;16.80;2.10;;;15.90;99.90;;;;;;5052069;28;20081;-65
2022/05/27 06:36:47;;;;;;;11.07;1.90;;;16.70;99.90;;;;;;5046176;28;20049;-65
2022/05/27 06:39:13;;;;;;;12.88;2.35;;;16.90;99.90;;;;;;5033661;28;20076;-65
2022/05/27 06:41:39;;;;;;;14.07;2.63;;;17.10;99.90;;;;;;5032948;28;20081;-66
2022/05/27 06:44:05;;;;;;;11.38;2.28;;;16.70;99.90;;;;;;5036969;28;20072;-65
2022/05/27 06:46:32;;;;;;;9.27;2.10;;;17.70;99.90;;;;;;5041139;28;20045;-65
2022/05/27 06:48:58;;;;;;;11.82;2.50;;;16.60;99.90;;;;;;5045780;28;20505;-65
2022/05/27 06:51:24;;;;;;;11.82;2.58;;;16.50;99.90;;;;;;5038494;28;20049;-65
2022/05/27 06:53:49;;;;;;;15.20;3.20;;;16.20;99.90;;;;;;5029956;28;20056;-65
2022/05/27 06:56:15;;;;;;;13.07;2.30;;;16.00;99.90;;;;;;5027761;28;20395;-65
2022/05/27 06:58:42;;;;;;;10.18;2.60;;;15.90;99.90;;;;;;5026984;28;20054;-65
2022/05/27 07:01:11;;;;;;;10.75;2.35;;;15.90;99.90;;;;;;5027218;28;20170;-65
2022/05/27 07:03:37;;;;;;;15.60;3.33;;;15.90;99.90;;;;;;5028976;28;20033;-66
2022/05/27 07:06:08;;;;;;;9.60;2.33;;;15.80;99.90;;;;;;5025435;28;20068;-65
2022/05/27 07:08:34;;;;;;;11.43;3.05;;;15.80;99.90;;;;;;5030205;28;20094;-66
2022/05/27 07:11:00;;;;;;;10.32;2.00;;;15.70;99.90;;;;;;5034023;28;20479;-65
2022/05/27 07:13:26;;;;;;;13.45;3.45;;;15.80;99.90;;;;;;5047960;28;20053;-66
2022/05/27 07:15:52;;;;;;;14.68;2.30;;;15.80;99.90;;;;;;5033908;28;20344;-66
2022/05/27 07:18:19;;;;;;;12.77;2.25;;;15.80;99.90;;;;;;5045612;28;20064;-64
2022/05/27 07:20:44;;;;;;;15.27;3.08;;;15.90;99.90;;;;;;5043594;28;20503;-64
2022/05/27 07:23:10;;;;;;;10.18;2.05;;;15.90;99.90;;;;;;5046189;28;20037;-65
2022/05/27 07:25:36;;;;;;;17.40;2.70;;;15.90;99.90;;;;;;5046220;28;20041;-65
2022/05/27 07:28:06;;;;;;;12.82;2.58;;;15.90;99.90;;;;;;5047146;28;20037;-65
2022/05/27 07:30:33;;;;;;;11.38;2.25;;;15.70;99.90;;;;;;5046465;28;20124;-65
2022/05/27 07:32:58;;;;;;;10.80;3.03;;;15.70;99.90;;;;;;5047007;28;20049;-66
2022/05/27 07:35:24;;;;;;;13.18;2.75;;;15.80;99.90;;;;;;5047530;28;20151;-66
2022/05/27 07:37:50;;;;;;;10.50;2.53;;;15.60;99.90;;;;;;5050128;28;20033;-65
2022/05/27 07:40:16;;;;;;;12.38;2.38;;;15.80;99.90;;;;;;5049733;28;20163;-66
2022/05/27 07:42:42;;;;;;;15.48;2.88;;;15.80;99.90;;;;;;5049784;28;20036;-65
2022/05/27 07:45:10;;;;;;;12.63;2.40;;;15.70;99.90;;;;;;5049056;28;20029;-66
2022/05/27 07:47:36;;;;;;;9.70;2.20;;;;;;;;;;5050200;28;20037;-66
2022/05/27 07:50:02;;;;;;;9.73;2.30;;;15.90;99.90;;;;;;5049263;28;20033;-66
2022/05/27 07:52:29;;;;;;;11.57;2.30;;;15.90;99.90;;;;;;5048190;28;20410;-66
2022/05/27 07:54:55;;;;;;;8.82;1.55;;;15.90;99.90;;;;;;5052206;28;20041;-65
2022/05/27 07:57:25;;;;;;;10.88;2.63;;;15.70;99.90;;;;;;5035180;28;20040;-67
2022/05/27 08:00:04;;;;;;;11.95;2.15;;;15.90;99.90;;;;;;5053056;28;20518;-65
2022/05/27 08:02:31;;;;;;;6.90;1.60;;;;;;;;;;5050295;28;20494;-66
2022/05/27 08:04:57;;;;;;;9.82;1.88;;;15.70;99.90;;;;;;5047821;28;20061;-66
2022/05/27 08:07:24;;;;;;;8.85;2.38;;;;;;;;;;5049792;28;20462;-67
2022/05/27 08:09:50;;;;;;;9.07;1.90;;;;;;;;;;5049333;28;20047;-66
2022/05/27 08:12:16;;;;;;;12.77;2.33;;;;;;;;;;5049572;28;20394;-65
2022/05/27 08:14:41;;;;;;;9.10;2.05;;;15.60;99.90;;;;;;5047699;28;20449;-65
2022/05/27 08:17:07;;;;;;;16.45;2.55;;;15.30;99.90;;;;;;5047317;28;20045;-65
2022/05/27 08:19:33;;;;;;;19.33;4.53;;;15.40;99.90;;;;;;5049165;28;20166;-65
2022/05/27 08:21:58;;;;;;;14.48;2.85;;;15.50;99.90;;;;;;5046347;28;20037;-65
2022/05/27 08:24:24;;;;;;;16.17;3.28;;;;;;;;;;5047314;28;20044;-66
2022/05/27 08:26:50;;;;;;;16.27;2.63;;;;;;;;;;5047969;28;20503;-65
2022/05/27 08:29:16;;;;;;;19.17;2.58;;;;;;;;;;5049341;28;20048;-66
2022/05/27 08:31:42;;;;;;;14.25;2.53;;;15.50;99.90;;;;;;5048701;28;20045;-65
2022/05/27 08:39:42;;;;;;;16.20;2.70;;;15.80;99.90;;;;;;5050027;28;20119;-65
2022/05/27 08:42:22;;;;;;;15.25;3.22;;;15.90;99.90;;;;;;5051596;28;20041;-65
2022/05/27 08:45:21;;;;;;;11.05;2.17;;;15.80;99.90;;;;;;5048554;28;20040;-65
2022/05/27 08:47:52;;;;;;;14.20;2.70;;;15.70;99.90;;;;;;5047171;28;20124;-65
2022/05/27 08:50:31;;;;;;;13.15;2.40;;;15.70;99.90;;;;;;5051579;28;20028;-65
2022/05/27 08:53:29;;;;;;;11.80;2.17;;;15.90;99.90;;;;;;5039111;28;20047;-65
2022/05/27 09:01:42;;;;;;;13.87;2.00;;;16.00;99.90;;;;;;5051782;28;20554;-64
2022/05/27 09:04:07;;;;;;;7.78;1.95;;;16.00;99.90;;;;;;5051751;28;20276;-63
2022/05/27 09:06:41;;;;;;;8.55;2.00;;;16.00;99.90;;;;;;5050512;28;20107;-66
2022/05/27 09:09:16;;;;;;;8.95;1.90;;;15.90;99.90;;;;;;5052226;28;20036;-65
2022/05/27 09:11:59;;;;;;;;;;;15.80;99.90;;;;;;5034919;28;20479;-65
2022/05/27 09:14:26;;;;;;;11.85;2.38;;;16.10;99.90;;;;;;5033722;28;19917;-64
2022/05/27 09:17:02;;;;;;;13.45;2.35;;;16.10;99.90;;;;;;5052027;28;20406;-65
2022/05/27 09:19:46;;;;;;;9.35;2.92;;;16.20;99.90;;;;;;5051990;28;20495;-66
2022/05/27 09:22:36;;;;;;;13.97;2.33;;;16.10;99.90;;;;;;5052018;28;20049;-66
2022/05/27 09:25:20;;;;;;;11.45;1.88;;;15.80;99.90;;;;;;5051803;28;20043;-66
2022/05/27 09:28:14;;;;;;;9.02;2.28;;;15.80;99.90;;;;;;5041224;28;20044;-64
2022/05/27 09:30:41;;;;;;;11.25;2.63;;;16.20;99.90;;;;;;5049064;28;20033;-62
2022/05/27 09:33:10;;;;;;;12.73;2.30;;;16.10;99.90;;;;;;5052042;28;20048;-64
2022/05/27 09:35:49;;;;;;;14.30;2.72;;;16.10;99.90;;;;;;5050292;28;20091;-65
2022/05/27 09:38:25;;;;;;;8.00;1.90;;;16.20;99.90;;;;;;5050415;28;20053;-65
2022/05/27 09:41:00;;;;;;;7.53;2.17;;;15.90;99.90;;;;;;5051222;28;20041;-65
2022/05/27 09:43:57;;;;;;;13.13;2.38;;;16.00;99.90;;;;;;5051451;28;20045;-65
2022/05/27 09:46:31;;;;;;;13.73;2.60;;;16.10;99.90;;;;;;5027209;28;20677;-65
2022/05/27 09:48:58;;;;;;;14.27;2.20;;;16.20;99.90;;;;;;5052291;28;20449;-65
2022/05/27 09:51:25;;;;;;;7.75;2.13;;;16.30;99.90;;;;;;5051678;28;20055;-64
2022/05/27 09:54:00;;;;;;;13.73;2.53;;;16.30;99.90;;;;;;5050753;28;20048;-65
2022/05/27 09:56:54;;;;;;;9.00;1.35;;;16.30;99.90;;;;;;5047380;28;20037;-64
2022/05/27 09:59:20;;;;;;;7.80;1.55;;;16.30;99.90;;;;;;5038640;28;20041;-64
2022/05/27 10:01:45;;;;;;;9.35;1.67;;;16.30;99.90;;;;;;5050135;28;20070;-64
2022/05/27 10:04:14;;;;;;;9.23;2.50;;;16.40;99.90;;;;;;5042893;28;20057;-65
2022/05/27 10:06:41;;;;;;;6.15;1.90;;;16.40;99.90;;;;;;5048895;28;20044;-66
2022/05/27 10:09:11;;;;;;;9.57;1.80;;;16.40;99.90;;;;;;5052189;28;20057;-66
2022/05/27 10:11:51;;;;;;;15.25;2.50;;;16.30;99.90;;;;;;5050942;28;20545;-66
2022/05/27 10:14:28;;;;;;;11.90;1.63;;;16.40;99.90;;;;;;5051504;28;20732;-66
2022/05/27 10:17:09;;;;;;;11.82;2.05;;;16.40;99.90;;;;;;5051084;28;20037;-65
2022/05/27 10:19:36;;;;;;;11.48;2.90;;;16.50;99.90;;;;;;5049603;28;20040;-65
2022/05/27 10:22:03;;;;;;;11.05;1.90;;;16.40;99.90;;;;;;5051503;28;20033;-65
2022/05/27 10:24:38;;;;;;;11.27;3.08;;;16.30;99.90;;;;;;5049619;28;20047;-65
2022/05/27 10:27:11;;;;;;;10.95;2.40;;;16.20;99.90;;;;;;5048707;28;20132;-64
2022/05/27 10:29:52;;;;;;;11.88;2.20;;;16.20;99.90;;;;;;5050501;28;20479;-64
2022/05/27 10:32:26;;;;;;;8.02;2.22;;;16.40;99.90;;;;;;5049816;28;20114;-65
2022/05/27 10:34:53;;;;;;;10.75;2.28;;;16.40;99.90;;;;;;5050089;28;20045;-64
2022/05/27 10:37:28;;;;;;;13.15;2.72;;;16.40;99.90;;;;;;5051284;28;20398;-64
2022/05/27 10:40:05;;;;;;;14.50;2.30;;;16.30;99.90;;;;;;5051455;28;20045;-64
2022/05/27 10:42:53;;;;;;;14.90;2.90;;;16.20;99.90;;;;;;5049757;28;20049;-64
2022/05/27 10:45:39;;;;;;;9.25;2.38;;;16.30;99.90;;;;;;5049969;28;20045;-64
2022/05/27 10:48:26;;;;;;;12.63;2.15;;;16.40;99.90;;;;;;5050424;28;20052;-65
2022/05/27 10:51:22;;;;;;;9.63;2.03;;;16.50;99.90;;;;;;5033528;28;20491;-65
2022/05/27 10:54:06;;;;;;;10.52;1.80;;;16.50;99.90;;;;;;5049535;28;20090;-64
2022/05/27 10:56:32;;;;;;;13.10;2.50;;;16.30;99.90;;;;;;5050946;28;20059;-64
2022/05/27 11:02:28;;;;;;;13.32;3.85;;;16.50;99.90;;;;;;5031190;28;20049;-65
2022/05/27 11:05:28;;;;;;;10.50;2.30;;;16.50;99.90;;;;;;5047473;28;20053;-65
2022/05/27 11:08:36;;;;;;;8.35;1.95;;;16.30;99.90;;;;;;5050951;28;20037;-64
2022/05/27 11:11:25;;;;;;;13.57;2.42;;;16.40;99.90;;;;;;5049495;28;20036;-64
2022/05/27 11:17:11;;;;;;;7.95;2.42;;;16.00;99.90;;;;;;5049453;28;20045;-64
2022/05/27 11:20:01;;;;;;;12.90;2.42;;;16.10;99.90;;;;;;5048830;28;20041;-64
2022/05/27 11:22:37;;;;;;;20.70;2.40;;;16.10;99.90;;;;;;5048747;28;20045;-65
2022/05/27 11:25:35;;;;;;;9.40;2.45;;;16.30;99.90;;;;;;5049015;28;20052;-64
2022/05/27 11:28:28;;;;;;;10.68;1.70;;;16.40;99.90;;;;;;5050283;28;20083;-65
2022/05/27 11:31:25;;;;;;;11.57;1.75;;;16.30;99.90;;;;;;5054545;28;20044;-64
2022/05/27 11:33:53;;;;;;;10.52;1.75;;;16.30;99.90;;;;;;5052012;28;20056;-66
2022/05/27 11:36:28;;;;;;;11.68;2.25;;;16.40;99.90;;;;;;5053007;28;20049;-65
2022/05/27 11:39:06;;;;;;;8.77;2.55;;;16.50;99.90;;;;;;5052533;28;20126;-64
2022/05/27 11:41:56;;;;;;;16.23;2.22;;;16.40;99.90;;;;;;5052179;28;20111;-66
2022/05/27 11:44:28;;;;;;;13.23;3.33;;;16.50;99.90;;;;;;5052137;28;20067;-64
2022/05/27 11:46:56;;;;;;;11.95;1.85;;;16.20;99.90;;;;;;5050374;28;20376;-65
2022/05/27 11:49:54;;;;;;;10.43;2.63;;;16.40;99.90;;;;;;5053922;28;20037;-65
2022/05/27 11:52:31;;;;;;;11.88;2.17;;;16.20;99.90;;;;;;4993962;28;20444;-65
2022/05/27 11:55:02;;;;;;;14.40;2.85;;;16.10;99.90;;;;;;5053488;28;20040;-67
2022/05/27 11:57:48;;;;;;;12.70;2.55;;;16.10;99.90;;;;;;5053198;28;20045;-65
2022/05/27 12:00:18;;;;;;;11.32;1.80;;;16.20;99.90;;;;;;5043556;28;20372;-65
2022/05/27 12:02:52;;;;;;;15.80;2.72;;;16.20;99.90;;;;;;5052542;28;20041;-65
2022/05/27 12:05:26;;;;;;;12.18;2.55;;;16.20;99.90;;;;;;5052535;28;20057;-64
2022/05/27 12:08:00;;;;;;;12.90;2.33;;;16.30;99.90;;;;;;5053059;28;20049;-64
2022/05/27 12:10:50;;;;;;;14.35;3.53;;;16.40;99.90;;;;;;5049483;28;20040;-64
2022/05/27 12:13:31;;;;;;;11.50;2.20;;;16.30;99.90;;;;;;5048294;28;20094;-65
2022/05/27 12:16:05;;;;;;;13.80;2.75;;;16.30;99.90;;;;;;5054213;28;20037;-66
2022/05/27 12:18:49;;;;;;;10.75;3.65;;;16.20;99.90;;;;;;5054113;28;20045;-66
2022/05/27 12:21:19;;;;;;;13.13;2.90;;;16.10;99.90;;;;;;5052583;28;20067;-66
2022/05/27 12:23:56;;;;;;;13.77;1.92;;;16.20;99.90;;;;;;5052616;28;20517;-65
2022/05/27 12:26:32;;;;;;;14.35;2.60;;;16.20;99.90;;;;;;5051982;28;20506;-65
2022/05/27 12:29:02;;;;;;;17.42;2.63;;;16.40;99.90;;;;;;5054089;28;20052;-66
2022/05/27 12:31:31;;;;;;;13.88;3.13;;;16.50;99.90;;;;;;5052342;28;20049;-66
2022/05/27 12:33:57;;;;;;;12.43;2.45;;;16.50;99.90;;;;;;5052255;28;20049;-66
2022/05/27 12:36:27;;;;;;;13.00;2.13;;;16.60;99.90;;;;;;5052010;28;20053;-65
2022/05/27 12:38:57;;;;;;;13.68;2.80;;;16.70;99.90;;;;;;5052313;28;20048;-66
2022/05/27 12:41:36;;;;;;;14.52;2.15;;;16.60;99.90;;;;;;5052974;28;20052;-64
2022/05/27 12:44:09;;;;;;;14.75;2.63;;;16.60;99.90;;;;;;5052538;28;20516;-64
2022/05/27 12:46:45;;;;;;;13.43;2.72;;;16.50;99.90;;;;;;5046662;28;20419;-65
2022/05/27 12:49:40;;;;;;;14.75;2.83;;;16.30;99.90;;;;;;5040075;28;20115;-66
2022/05/27 12:52:27;;;;;;;14.23;2.92;;;16.50;99.90;;;;;;5053704;28;20041;-66
2022/05/27 12:54:53;;;;;;;17.23;3.38;;;16.40;99.90;;;;;;5053889;28;20529;-66
2022/05/27 13:03:40;;;;;;;17.63;3.90;;;16.10;99.90;;;;;;5032409;28;20053;-65
2022/05/27 13:06:13;;;;;;;12.52;2.63;;;16.00;99.90;;;;;;5033061;28;20061;-66
2022/05/27 13:09:00;;;;;;;12.18;2.92;;;16.10;99.90;;;;;;5031859;28;20179;-66
2022/05/27 13:11:31;;;;;;;13.07;2.15;;;16.10;99.90;;;;;;5049970;28;20537;-66
2022/05/27 13:14:00;;;;;;;15.95;2.83;;;16.00;99.90;;;;;;5045888;28;20033;-66
2022/05/27 13:16:35;;;;;;;15.77;2.22;;;16.00;99.90;;;;;;5051259;28;20167;-66
2022/05/27 13:19:08;;;;;;;16.20;2.60;;;15.80;99.90;;;;;;5046858;28;20044;-65
2022/05/27 13:21:47;;;;;;;13.02;2.90;;;15.90;99.90;;;;;;5051011;28;20048;-66
2022/05/27 13:24:12;;;;;;;16.10;2.00;;;16.00;99.90;;;;;;5051029;28;20095;-65
2022/05/27 13:26:44;;;;;;;13.50;3.30;;;16.00;99.90;;;;;;5051599;28;20029;-65
2022/05/27 13:29:39;;;;;;;12.30;2.30;;;15.90;99.90;;;;;;5032718;28;20045;-65
2022/05/27 13:32:14;;;;;;;18.33;2.63;;;15.90;99.90;;;;;;5052087;28;20056;-65
2022/05/27 13:35:00;;;;;;;12.05;2.20;;;15.80;99.90;;;;;;5051461;28;20037;-66
2022/05/27 13:37:57;;;;;;;12.90;2.50;;;15.70;99.90;;;;;;5048859;28;20048;-64
2022/05/27 13:40:29;;;;;;;12.90;2.75;;;16.00;99.90;;;;;;5035363;28;20064;-64
2022/05/27 13:43:00;;;;;;;14.50;2.35;;;15.70;99.90;;;;;;5047001;28;20049;-65
2022/05/27 13:45:55;;;;;;;14.95;2.30;;;15.70;99.90;;;;;;5046382;28;20037;-64
2022/05/27 13:48:56;;;;;;;11.00;2.58;;;15.90;99.90;;;;;;5044414;28;20505;-64
2022/05/27 13:51:26;;;;;;;10.27;2.47;;;15.80;99.90;;;;;;5032382;28;20474;-65